createdAt,value
2022-10-04T00:01:51.066Z,12.60
2022-10-04T00:04:26.656Z,13.10
2022-10-04T00:07:06.066Z,12.60
2022-10-04T00:09:38.502Z,12.60
2022-10-04T00:12:08.140Z,12.60
2022-10-04T00:14:47.348Z,12.70
2022-10-04T00:17:24.252Z,12.20
2022-10-04T00:19:55.399Z,12.60
2022-10-04T00:22:27.509Z,12.60
2022-10-04T00:25:37.432Z,12.50
2022-10-04T00:28:32.417Z,12.60
2022-10-04T00:31:15.611Z,12.50
2022-10-04T00:33:46.271Z,12.50
2022-10-04T00:36:52.182Z,12.50
2022-10-04T00:39:45.180Z,12.40
2022-10-04T00:42:40.324Z,12.40
2022-10-04T00:45:19.399Z,12.30
2022-10-04T00:48:21.373Z,12.30
2022-10-04T00:50:55.181Z,12.30
2022-10-04T00:53:40.410Z,12.30
2022-10-04T00:56:17.845Z,12.30
2022-10-04T00:59:07.790Z,12.30
2022-10-04T01:01:39.468Z,12.30
2022-10-04T01:04:26.040Z,12.30
2022-10-04T01:06:55.711Z,12.20
2022-10-04T01:09:25.120Z,12.20
2022-10-04T01:12:02.708Z,12.30
2022-10-04T01:14:41.546Z,12.20
2022-10-04T01:17:13.675Z,12.20
2022-10-04T01:19:53.271Z,12.20
2022-10-04T01:22:37.701Z,12.20
2022-10-04T01:25:07.170Z,12.10
2022-10-04T01:27:41.856Z,12.30
2022-10-04T01:30:13.532Z,12.20
2022-10-04T01:32:45.044Z,12.10
2022-10-04T01:35:17.111Z,12.10
2022-10-04T01:37:47.376Z,12.10
2022-10-04T01:40:16.516Z,12.10
2022-10-04T01:42:52.003Z,12.10
2022-10-04T01:45:30.166Z,12.10
2022-10-04T01:48:02.396Z,12.00
2022-10-04T01:50:37.124Z,12.00
2022-10-04T01:53:18.039Z,12.00
2022-10-04T01:55:50.384Z,12.00
2022-10-04T01:58:23.020Z,12.00
2022-10-04T02:00:55.734Z,12.30
2022-10-04T02:03:30.535Z,12.00
2022-10-04T02:06:02.796Z,11.90
2022-10-04T02:08:36.074Z,12.00
2022-10-04T02:11:06.912Z,11.90
2022-10-04T02:13:39.931Z,11.90
2022-10-04T02:16:12.992Z,11.90
2022-10-04T02:18:44.760Z,11.90
2022-10-04T02:21:16.002Z,11.90
2022-10-04T02:23:47.400Z,11.90
2022-10-04T02:26:16.154Z,11.80
2022-10-04T02:28:45.242Z,11.90
2022-10-04T02:31:31.696Z,11.90
2022-10-04T02:34:01.557Z,11.90
2022-10-04T02:36:31.400Z,11.90
2022-10-04T02:39:05.060Z,11.90
2022-10-04T02:41:37.119Z,11.90
2022-10-04T02:44:12.347Z,11.90
2022-10-04T02:46:48.495Z,11.90
2022-10-04T02:49:25.615Z,11.90
2022-10-04T02:51:59.695Z,11.90
2022-10-04T02:54:34.582Z,11.90
2022-10-04T02:57:03.487Z,11.90
2022-10-04T02:59:35.404Z,11.90
2022-10-04T03:02:05.437Z,11.80
2022-10-04T03:04:39.891Z,11.70
2022-10-04T03:07:10.947Z,11.70
2022-10-04T03:09:42.589Z,11.70
2022-10-04T03:12:14.476Z,11.60
2022-10-04T03:14:45.142Z,11.60
2022-10-04T03:17:16.427Z,11.60
2022-10-04T03:19:49.234Z,11.60
2022-10-04T03:22:19.586Z,11.60
2022-10-04T03:24:51.765Z,11.60
2022-10-04T03:27:25.550Z,11.60
2022-10-04T03:29:59.142Z,11.60
2022-10-04T03:32:30.855Z,11.60
2022-10-04T03:35:01.771Z,11.50
2022-10-04T03:37:33.451Z,11.50
2022-10-04T03:40:06.091Z,11.50
2022-10-04T03:42:38.694Z,11.50
2022-10-04T03:45:12.772Z,11.50
2022-10-04T03:47:45.820Z,11.50
2022-10-04T03:50:18.297Z,11.40
2022-10-04T03:52:51.798Z,11.40
2022-10-04T03:55:23.411Z,11.40
2022-10-04T03:57:53.602Z,11.30
2022-10-04T04:00:22.270Z,11.30
2022-10-04T04:02:53.907Z,11.30
2022-10-04T04:05:26.032Z,11.20
2022-10-04T04:08:05.547Z,11.20
2022-10-04T04:10:40.935Z,11.20
2022-10-04T04:13:21.480Z,11.20
2022-10-04T04:15:50.681Z,11.20
2022-10-04T04:18:23.512Z,11.20
2022-10-04T04:20:53.802Z,11.20
2022-10-04T04:23:27.935Z,11.20
2022-10-04T04:26:01.941Z,11.20
2022-10-04T04:28:37.086Z,11.20
2022-10-04T04:31:10.207Z,11.10
2022-10-04T04:33:47.461Z,11.10
2022-10-04T04:36:17.706Z,11.10
2022-10-04T04:39:00.482Z,11.10
2022-10-04T04:41:33.570Z,11.00
2022-10-04T04:44:03.167Z,11.10
2022-10-04T04:46:32.925Z,10.70
2022-10-04T04:49:05.979Z,11.00
2022-10-04T04:51:35.284Z,11.00
2022-10-04T04:54:08.114Z,11.00
2022-10-04T04:56:39.254Z,10.90
2022-10-04T04:59:09.635Z,10.90
2022-10-04T05:01:44.861Z,10.90
2022-10-04T05:04:22.109Z,10.90
2022-10-04T05:07:02.541Z,10.90
2022-10-04T05:09:33.883Z,10.90
2022-10-04T05:12:10.749Z,10.90
2022-10-04T05:14:42.112Z,10.90
2022-10-04T05:17:21.099Z,10.90
2022-10-04T05:19:50.274Z,10.20
2022-10-04T05:22:24.425Z,10.80
2022-10-04T05:24:56.625Z,10.80
2022-10-04T05:27:30.805Z,10.80
2022-10-04T05:30:06.564Z,10.80
2022-10-04T05:32:45.803Z,10.70
2022-10-04T05:35:18.820Z,10.80
2022-10-04T05:37:59.993Z,10.80
2022-10-04T05:40:42.972Z,10.70
2022-10-04T05:43:34.581Z,10.70
2022-10-04T05:46:18.842Z,10.70
2022-10-04T05:48:51.252Z,10.70
2022-10-04T05:51:21.865Z,10.70
2022-10-04T05:53:51.647Z,10.70
2022-10-04T05:56:57.020Z,10.70
2022-10-04T05:59:42.736Z,10.80
2022-10-04T06:02:25.535Z,10.80
2022-10-04T06:05:09.782Z,10.80
2022-10-04T06:07:43.475Z,10.90
2022-10-04T06:10:46.554Z,10.90
2022-10-04T06:13:30.486Z,11.00
2022-10-04T06:16:09.231Z,11.00
2022-10-04T06:19:06.047Z,11.00
2022-10-04T06:21:43.895Z,11.10
2022-10-04T06:24:18.824Z,11.10
2022-10-04T06:26:54.776Z,11.20
2022-10-04T06:29:28.112Z,11.30
2022-10-04T06:32:27.106Z,11.30
2022-10-04T06:35:19.241Z,11.30
2022-10-04T06:38:13.791Z,11.50
2022-10-04T06:41:14.607Z,11.50
2022-10-04T06:44:14.997Z,11.50
2022-10-04T06:46:49.780Z,11.60
2022-10-04T06:49:38.192Z,11.70
2022-10-04T06:52:26.757Z,12.00
2022-10-04T06:55:18.021Z,11.90
2022-10-04T06:58:12.615Z,12.10
2022-10-04T07:00:50.568Z,12.20
2022-10-04T07:03:26.710Z,12.30
2022-10-04T07:06:05.369Z,12.40
2022-10-04T07:08:41.689Z,12.60
2022-10-04T07:11:18.422Z,12.80
2022-10-04T07:13:56.859Z,13.10
2022-10-04T07:16:40.318Z,13.20
2022-10-04T07:19:35.272Z,13.20
2022-10-04T07:22:20.589Z,13.10
2022-10-04T07:25:09.392Z,13.00
2022-10-04T07:27:49.245Z,12.90
2022-10-04T07:30:19.448Z,13.00
2022-10-04T07:32:50.806Z,13.00
2022-10-04T07:35:27.092Z,12.90
2022-10-04T07:38:02.179Z,13.00
2022-10-04T07:40:36.744Z,13.40
2022-10-04T07:43:08.530Z,12.80
2022-10-04T07:45:40.951Z,12.70
2022-10-04T07:48:17.271Z,12.80
2022-10-04T07:50:51.062Z,13.10
2022-10-04T07:53:27.921Z,12.80
2022-10-04T07:56:02.851Z,12.90
2022-10-04T07:58:45.999Z,13.10
2022-10-04T08:01:28.687Z,13.50
2022-10-04T08:04:15.849Z,14.20
2022-10-04T08:06:57.223Z,15.00
2022-10-04T08:09:49.017Z,15.50
2022-10-04T08:12:26.391Z,15.60
2022-10-04T08:15:12.595Z,15.70
2022-10-04T08:17:55.777Z,16.20
2022-10-04T08:20:41.357Z,16.70
2022-10-04T08:23:28.123Z,16.90
